Time,TemperatureF,DewpointF,PressureIn,WindDirection,WindDirectionDegrees,WindSpeedMPH,WindSpeedGustMPH,Humidity,HourlyPrecipIn,Conditions,Clouds,dailyrainin,SoftwareType,DateUTC
2014-09-19 00:04:00,57.0,48.0,30.15,East,80,6.0,-999.0,71,-99.99,,,-99.99,,2014-09-19 04:04:00,
2014-09-19 00:53:00,55.0,46.0,30.15,ENE,60,6.0,-999.0,71,-99.99,,,-99.99,,2014-09-19 04:53:00,
2014-09-19 01:03:00,55.0,46.0,30.15,ENE,60,6.0,-999.0,71,-99.99,,,-99.99,,2014-09-19 05:03:00,
2014-09-19 02:53:00,54.0,48.0,30.17,East,80,7.0,-999.0,81,-99.99,,,-99.99,,2014-09-19 06:53:00,
2014-09-19 03:53:00,54.0,48.0,30.17,East,80,8.0,-999.0,81,-99.99,,,-99.99,,2014-09-19 07:53:00,
2014-09-19 04:02:00,54.0,48.0,30.17,East,80,8.0,-999.0,81,-99.99,,,-99.99,,2014-09-19 08:02:00,
2014-09-19 04:52:00,54.0,48.0,30.17,East,90,7.0,-999.0,81,-99.99,,,-99.99,,2014-09-19 08:52:00,
2014-09-19 05:54:00,52.0,48.0,30.17,East,90,8.0,-999.0,87,-99.99,,,-99.99,,2014-09-19 09:54:00,
2014-09-19 06:04:00,52.0,48.0,30.17,East,90,8.0,-999.0,87,-99.99,,,-99.99,,2014-09-19 10:04:00,
2014-09-19 06:54:00,52.0,48.0,30.17,East,90,9.0,-999.0,87,-99.99,,,-99.99,,2014-09-19 10:54:00,
2014-09-19 07:03:00,52.0,48.0,30.17,East,90,9.0,-999.0,87,-99.99,,,-99.99,,2014-09-19 11:03:00,
2014-09-19 07:52:00,52.0,48.0,30.18,ENE,70,7.0,-999.0,87,-99.99,,,-99.99,,2014-09-19 11:52:00,
2014-09-19 08:02:00,52.0,48.0,30.18,ENE,70,7.0,-999.0,87,-99.99,,,-99.99,,2014-09-19 12:02:00,
2014-09-19 08:52:00,54.0,48.0,30.19,East,90,8.0,-999.0,81,-99.99,,,-99.99,,2014-09-19 12:52:00,
2014-09-19 09:02:00,54.0,48.0,30.19,East,90,8.0,-999.0,81,-99.99,,,-99.99,,2014-09-19 13:02:00,
2014-09-19 09:53:00,59.0,52.0,30.21,East,90,9.0,-999.0,76,-99.99,,,-99.99,,2014-09-19 13:53:00,
2014-09-19 10:03:00,59.0,52.0,30.21,East,90,9.0,-999.0,76,-99.99,,,-99.99,,2014-09-19 14:03:00,
2014-09-19 10:40:00,63.0,54.0,30.21,East,80,10.0,-999.0,72,-99.99,,,-99.99,,2014-09-19 14:40:00,
2014-09-19 10:52:00,63.0,54.0,30.21,East,80,10.0,-999.0,72,-99.99,,,-99.99,,2014-09-19 14:52:00,
2014-09-19 11:02:00,63.0,54.0,30.21,East,80,10.0,-999.0,72,-99.99,,,-99.99,,2014-09-19 15:02:00,
2014-09-19 11:11:00,63.0,54.0,30.21,East,80,10.0,-999.0,72,-99.99,,,-99.99,,2014-09-19 15:11:00,
2014-09-19 11:21:00,63.0,54.0,30.21,East,80,10.0,-999.0,72,-99.99,,,-99.99,,2014-09-19 15:21:00,
2014-09-19 11:32:00,63.0,54.0,30.21,East,80,10.0,-999.0,72,-99.99,,,-99.99,,2014-09-19 15:32:00,
2014-09-19 12:54:00,70.0,52.0,30.19,East,80,14.0,-999.0,52,-99.99,,,-99.99,,2014-09-19 16:54:00,
2014-09-19 13:04:00,70.0,52.0,30.19,East,80,14.0,-999.0,52,-99.99,,,-99.99,,2014-09-19 17:04:00,
2014-09-19 13:53:00,72.0,52.0,30.18,ENE,70,7.0,-999.0,49,-99.99,,,-99.99,,2014-09-19 17:53:00,
2014-09-19 14:03:00,72.0,52.0,30.18,ENE,70,7.0,-999.0,49,-99.99,,,-99.99,,2014-09-19 18:03:00,
2014-09-19 14:52:00,73.0,48.0,30.15,East,90,7.0,-999.0,40,-99.99,,,-99.99,,2014-09-19 18:52:00,
2014-09-19 15:02:00,73.0,48.0,30.15,East,90,7.0,-999.0,40,-99.99,,,-99.99,,2014-09-19 19:02:00,
2014-09-19 15:53:00,73.0,46.0,30.13,East,100,7.0,-999.0,38,-99.99,,,-99.99,,2014-09-19 19:53:00,
2014-09-19 16:02:00,73.0,46.0,30.13,East,100,7.0,-999.0,38,-99.99,,,-99.99,,2014-09-19 20:02:00,
2014-09-19 16:52:00,75.0,46.0,30.12,North,0,0.0,-999.0,35,-99.99,,,-99.99,,2014-09-19 20:52:00,
2014-09-19 17:02:00,75.0,46.0,30.12,North,0,0.0,-999.0,35,-99.99,,,-99.99,,2014-09-19 21:02:00,
2014-09-19 17:55:00,73.0,46.0,30.10,SE,130,5.0,-999.0,38,-99.99,,,-99.99,,2014-09-19 21:55:00,
2014-09-19 18:04:00,73.0,46.0,30.10,SE,130,5.0,-999.0,38,-99.99,,,-99.99,,2014-09-19 22:04:00,
2014-09-19 18:53:00,73.0,48.0,30.10,East,80,3.0,-999.0,40,-99.99,,,-99.99,,2014-09-19 22:53:00,
2014-09-19 19:03:00,73.0,48.0,30.10,East,80,3.0,-999.0,40,-99.99,,,-99.99,,2014-09-19 23:03:00,
2014-09-19 19:53:00,68.0,50.0,30.09,North,0,0.0,-999.0,52,-99.99,,,-99.99,,2014-09-19 23:53:00,
2014-09-19 20:02:00,68.0,50.0,30.09,North,0,0.0,-999.0,52,-99.99,,,-99.99,,2014-09-20 00:02:00,
2014-09-19 20:52:00,64.0,48.0,30.10,North,0,0.0,-999.0,55,-99.99,,,-99.99,,2014-09-20 00:52:00,
2014-09-19 21:02:00,64.0,48.0,30.10,North,0,0.0,-999.0,55,-99.99,,,-99.99,,2014-09-20 01:02:00,